Time;durP1;ratioP1;P1;durP2;ratioP2;P2;SDS_P1;SDS_P2;PMS_P1;PMS_P2;Temp;Humidity;BMP_temperature;BMP_pressure;BME280_temperature;BME280_humidity;BME280_pressure;Samples;Min_cycle;Max_cycle;Signal;HPM_P1;HPM_P2
2023/01/30 00:05:17;;;;;;;71.80;31.40;;;;;;;-2.50;93.85;99165.50;272732;1270;22564;-85
2023/01/30 00:11:20;;;;;;;61.30;27.60;;;;;;;-2.51;94.08;99159.23;273061;1270;22241;-85
2023/01/30 00:17:22;;;;;;;60.30;28.30;;;;;;;-2.51;94.20;99138.75;273237;1272;22220;-84
2023/01/30 00:23:27;;;;;;;62.50;28.40;;;;;;;-2.51;94.77;99118.64;273122;1270;22364;-84
2023/01/30 00:29:29;;;;;;;68.80;31.40;;;;;;;-2.45;95.18;99103.77;272303;1272;22772;-84
2023/01/30 00:35:30;;;;;;;71.60;30.80;;;;;;;-2.39;95.03;99086.11;269299;1270;25468;-84
2023/01/30 00:48:35;;;;;;;71.70;31.10;;;;;;;-2.34;95.04;99056.23;269880;1271;25418;-85
2023/01/30 00:54:37;;;;;;;66.10;28.50;;;;;;;-2.33;95.02;99033.05;271334;1272;22436;-85
2023/01/30 01:00:39;;;;;;;74.20;30.60;;;;;;;-2.36;94.99;99022.26;273567;1266;22221;-85
2023/01/30 01:07:02;;;;;;;62.70;29.30;;;;;;;-2.35;95.10;99012.17;273544;1272;22910;-85
2023/01/30 01:13:20;;;;;;;73.10;30.70;;;;;;;-2.34;95.11;98997.42;273370;1262;23186;-84
2023/01/30 01:19:36;;;;;;;68.70;29.60;;;;;;;-2.36;94.91;98980.61;273379;1270;22164;-84
2023/01/30 01:25:50;;;;;;;66.30;30.30;;;;;;;-2.45;94.73;98972.05;273277;1257;22382;-84
2023/01/30 01:32:24;;;;;;;71.60;32.80;;;;;;;-2.57;94.65;98965.15;271793;1260;23468;-84
2023/01/30 01:38:26;;;;;;;76.60;32.00;;;;;;;-2.79;94.22;98955.10;272974;1263;22400;-84
2023/01/30 01:45:03;;;;;;;67.40;32.20;;;;;;;-2.98;94.57;98938.60;273225;1272;22333;-83
2023/01/30 01:51:12;;;;;;;80.80;33.00;;;;;;;-3.06;94.90;98917.79;273288;1261;22164;-82
2023/01/30 01:57:20;;;;;;;77.00;33.50;;;;;;;-3.18;95.11;98912.44;273378;1273;23023;-82
2023/01/30 02:03:24;;;;;;;79.30;33.10;;;;;;;-3.30;95.04;98901.71;273349;1261;22389;-82
2023/01/30 02:09:26;;;;;;;69.30;31.30;;;;;;;-3.44;94.90;98892.02;273214;1271;22237;-81
2023/01/30 02:15:28;;;;;;;77.20;34.00;;;;;;;-3.56;95.06;98876.39;273069;1262;22562;-82
2023/01/30 02:21:47;;;;;;;71.50;33.80;;;;;;;-3.61;95.58;98867.88;270505;1270;24504;-81
2023/01/30 02:28:26;;;;;;;76.40;32.60;;;;;;;-3.64;95.86;98858.66;269343;1264;22566;-81
2023/01/30 02:35:01;;;;;;;75.60;33.80;;;;;;;-3.69;96.05;98858.63;270027;1257;23022;-81
2023/01/30 02:41:12;;;;;;;73.50;31.00;;;;;;;-3.75;96.12;98860.77;273111;1269;22209;-82
2023/01/30 02:47:34;;;;;;;71.60;29.20;;;;;;;-3.79;96.38;98851.94;273069;1270;22344;-84
2023/01/30 02:53:37;;;;;;;63.30;27.30;;;;;;;-3.79;96.52;98833.33;271700;1272;22655;-81
2023/01/30 02:59:41;;;;;;;66.60;28.10;;;;;;;-3.79;96.33;98824.14;270422;1272;22670;-82
2023/01/30 03:06:13;;;;;;;54.40;25.30;;;;;;;-3.79;96.42;98817.66;270448;1270;25383;-80
2023/01/30 03:12:40;;;;;;;55.50;23.90;;;;;;;-3.77;96.61;98809.08;269972;1271;22724;-82
2023/01/30 03:18:42;;;;;;;60.90;24.40;;;;;;;-3.75;96.63;98802.24;270249;1270;22581;-82
2023/01/30 03:24:46;;;;;;;60.80;27.10;;;;;;;-3.70;96.88;98794.38;271465;1273;23356;-81
2023/01/30 03:30:48;;;;;;;60.40;26.30;;;;;;;-3.66;96.92;98783.52;272806;1272;23044;-81
2023/01/30 03:36:50;;;;;;;68.50;27.40;;;;;;;-3.61;96.98;98774.62;270307;1272;24461;-81
2023/01/30 03:42:51;;;;;;;62.00;29.00;;;;;;;-3.56;97.00;98777.98;272370;1272;22235;-82
2023/01/30 03:48:55;;;;;;;63.40;28.70;;;;;;;-3.56;96.85;98764.70;272889;1272;22347;-82
2023/01/30 03:54:56;;;;;;;68.00;28.00;;;;;;;-3.56;97.05;98751.48;273484;1272;22418;-81
2023/01/30 04:00:58;;;;;;;65.30;30.60;;;;;;;-3.54;97.08;98749.54;269865;1262;22570;-82
2023/01/30 04:07:00;;;;;;;68.80;30.10;;;;;;;-3.58;96.95;98736.10;269597;1270;23881;-81
2023/01/30 04:13:03;;;;;;;63.00;27.80;;;;;;;-3.62;97.25;98731.98;270182;1270;22582;-82
2023/01/30 04:19:06;;;;;;;58.40;26.20;;;;;;;-3.65;97.25;98727.02;273120;1270;22195;-81
2023/01/30 04:25:08;;;;;;;55.70;25.00;;;;;;;-3.66;97.39;98719.05;273040;1270;23133;-83
2023/01/30 04:31:14;;;;;;;54.10;24.00;;;;;;;-3.67;97.25;98707.61;273306;1261;22200;-82
2023/01/30 04:37:30;;;;;;;65.00;29.10;;;;;;;-3.68;97.16;98706.65;271131;1270;22532;-82
2023/01/30 04:43:33;;;;;;;68.80;30.00;;;;;;;-3.67;97.24;98694.83;270683;1262;22368;-81
2023/01/30 04:49:50;;;;;;;59.30;27.60;;;;;;;-3.65;97.56;98696.29;269985;1270;23357;-81
2023/01/30 04:55:53;;;;;;;62.60;27.80;;;;;;;-3.63;97.46;98686.26;270669;1265;22515;-85
2023/01/30 05:01:55;;;;;;;66.60;27.50;;;;;;;-3.60;97.66;98672.83;269554;1262;22357;-83
2023/01/30 05:07:59;;;;;;;63.10;26.50;;;;;;;-3.57;97.69;98673.85;271027;1272;22548;-80
2023/01/30 05:14:01;;;;;;;54.90;25.10;;;;;;;-3.53;97.69;98673.75;271454;1271;22436;-83
2023/01/30 05:20:04;;;;;;;49.20;23.10;;;;;;;-3.50;97.55;98679.36;271664;1261;22430;-83
2023/01/30 05:26:06;;;;;;;54.70;23.60;;;;;;;-3.47;97.65;98672.47;270092;1270;22620;-82
2023/01/30 05:32:12;;;;;;;50.90;25.00;;;;;;;-3.46;97.32;98656.51;269878;1270;22659;-80
2023/01/30 05:38:15;;;;;;;52.90;25.90;;;;;;;-3.46;97.30;98634.58;269251;1259;22547;-80
2023/01/30 05:44:16;;;;;;;55.10;26.40;;;;;;;-3.42;97.57;98620.09;271596;1271;22364;-80
2023/01/30 05:50:38;;;;;;;57.30;23.60;;;;;;;-3.38;97.23;98615.80;272858;1270;24286;-81
2023/01/30 05:56:41;;;;;;;51.80;23.40;;;;;;;-3.36;97.36;98620.52;272964;1271;22423;-80
2023/01/30 06:02:42;;;;;;;50.20;23.70;;;;;;;-3.31;97.18;98610.71;273226;1272;22171;-81
2023/01/30 06:08:45;;;;;;;52.50;22.10;;;;;;;-3.28;96.88;98591.91;273348;1270;22312;-83
2023/01/30 06:14:46;;;;;;;44.20;21.50;;;;;;;-3.24;96.91;98578.46;273278;1271;22409;-81
2023/01/30 06:20:49;;;;;;;48.70;23.30;;;;;;;-3.18;96.61;98572.95;273307;1263;22230;-81
2023/01/30 06:26:51;;;;;;;51.00;22.30;;;;;;;-3.14;96.48;98563.08;273306;1271;22200;-81
2023/01/30 06:33:03;;;;;;;43.90;19.50;;;;;;;-3.10;96.32;98538.95;271841;1270;24238;-81
2023/01/30 06:39:22;;;;;;;42.10;18.40;;;;;;;-3.06;96.07;98510.85;272289;1266;22225;-81
2023/01/30 06:45:24;;;;;;;34.70;15.80;;;;;;;-3.00;95.64;98505.86;273131;1259;22185;-81
2023/01/30 06:51:46;;;;;;;29.00;15.00;;;;;;;-2.94;95.54;98486.30;273258;1272;23334;-81
2023/01/30 06:57:48;;;;;;;37.00;18.10;;;;;;;-2.87;95.55;98498.59;270217;1259;24203;-82
2023/01/30 07:03:52;;;;;;;48.30;21.50;;;;;;;-2.82;95.28;98490.44;269991;1262;22401;-81
2023/01/30 07:09:54;;;;;;;43.50;18.80;;;;;;;-2.78;95.09;98477.66;270838;1263;22652;-81
2023/01/30 07:16:03;;;;;;;39.30;18.30;;;;;;;-2.69;95.16;98470.43;269172;1271;23357;-81
2023/01/30 07:22:05;;;;;;;36.20;17.40;;;;;;;-2.58;95.05;98445.23;272936;1272;22932;-82
2023/01/30 07:28:08;;;;;;;38.80;17.70;;;;;;;-2.47;95.05;98432.53;273395;1273;22236;-82
2023/01/30 07:34:14;;;;;;;39.00;16.60;;;;;;;-2.32;95.27;98449.43;273372;1259;22423;-81
2023/01/30 07:40:16;;;;;;;33.40;14.10;;;;;;;-2.16;94.56;98449.90;273411;1267;23797;-82
2023/01/30 07:46:18;;;;;;;47.10;19.50;;;;;;;-2.00;94.20;98463.73;273143;1272;22231;-82
2023/01/30 07:52:20;;;;;;;40.40;18.30;;;;;;;-1.86;94.36;98467.22;273070;1260;22498;-82
2023/01/30 07:58:21;;;;;;;38.40;18.70;;;;;;;-1.73;93.89;98460.82;272593;1259;22639;-83
2023/01/30 08:04:23;;;;;;;33.60;16.30;;;;;;;-1.59;93.86;98448.61;271172;1268;22242;-84
2023/01/30 08:10:25;;;;;;;37.20;16.70;;;;;;;-1.47;93.38;98454.84;272918;1272;23116;-83
2023/01/30 08:16:26;;;;;;;33.50;14.80;;;;;;;-1.37;92.95;98439.14;271752;1270;1792296;-85
2023/01/30 08:22:28;;;;;;;36.30;17.30;;;;;;;-1.28;92.64;98429.06;273330;1271;22374;-83
2023/01/30 08:28:30;;;;;;;32.70;14.60;;;;;;;-1.15;92.70;98421.02;272397;1271;22328;-84
2023/01/30 08:34:32;;;;;;;27.50;13.60;;;;;;;-1.02;92.46;98411.88;272481;1266;24392;-86
2023/01/30 08:40:34;;;;;;;29.10;13.60;;;;;;;-0.93;92.33;98396.65;272614;1272;22370;-85
2023/01/30 08:46:57;;;;;;;27.30;13.10;;;;;;;-0.85;92.28;98374.56;272939;1262;22344;-88
2023/01/30 08:53:04;;;;;;;25.00;13.20;;;;;;;-0.73;91.75;98380.35;271545;1262;22675;-87
2023/01/30 08:59:11;;;;;;;27.60;13.40;;;;;;;-0.62;91.89;98387.46;270713;1271;22616;-87
2023/01/30 09:05:13;;;;;;;22.40;11.80;;;;;;;-0.42;92.08;98375.88;270622;1270;22558;-86
2023/01/30 09:11:14;;;;;;;25.40;14.20;;;;;;;-0.08;92.55;98342.77;270475;1272;22553;-88
2023/01/30 09:17:17;;;;;;;26.10;13.90;;;;;;;0.21;92.23;98341.23;269901;1272;24263;-88
2023/01/30 09:23:19;;;;;;;24.80;12.90;;;;;;;0.48;91.95;98339.02;271423;1270;22388;-89
2023/01/30 09:29:49;;;;;;;21.60;11.40;;;;;;;0.58;91.44;98336.25;270651;1270;22555;-88
2023/01/30 09:35:55;;;;;;;22.30;11.00;;;;;;;0.65;91.09;98331.75;269792;1272;22567;-88
2023/01/30 09:42:06;;;;;;;18.30;10.30;;;;;;;0.76;91.31;98313.27;271016;1270;22561;-88
2023/01/30 09:48:12;;;;;;;21.80;11.40;;;;;;;0.80;90.52;98302.56;272052;1272;22515;-86
2023/01/30 09:54:20;;;;;;;22.20;10.20;;;;;;;0.81;90.28;98281.35;272095;1272;23050;-85
2023/01/30 10:00:42;;;;;;;20.20;10.90;;;;;;;0.83;90.08;98283.04;272065;1262;22400;-86
2023/01/30 10:06:53;;;;;;;16.30;9.80;;;;;;;0.86;90.15;98279.59;272647;1260;22814;-85
2023/01/30 10:13:07;;;;;;;15.70;9.30;;;;;;;0.90;89.93;98275.53;272816;1270;22355;-86
2023/01/30 10:19:21;;;;;;;20.80;10.30;;;;;;;0.86;89.61;98263.98;272859;1271;22336;-86
2023/01/30 10:25:32;;;;;;;24.40;11.30;;;;;;;0.83;89.52;98241.77;272833;1256;22368;-86
2023/01/30 10:31:44;;;;;;;20.90;10.90;;;;;;;0.82;89.60;98235.64;272604;1265;22343;-87
2023/01/30 10:37:59;;;;;;;17.40;9.30;;;;;;;0.89;89.81;98223.11;272475;1272;23299;-87
2023/01/30 10:44:10;;;;;;;22.40;10.50;;;;;;;1.03;89.76;98205.48;272936;1271;22495;-86
2023/01/30 10:50:11;;;;;;;19.50;9.90;;;;;;;1.11;89.16;98195.20;273132;1272;22267;-86
2023/01/30 10:56:19;;;;;;;20.60;10.10;;;;;;;1.11;88.89;98187.48;273133;1262;22322;-87
2023/01/30 11:02:41;;;;;;;18.80;10.30;;;;;;;1.09;89.24;98188.20;271709;1272;23552;-89
2023/01/30 11:08:43;;;;;;;17.80;10.70;;;;;;;1.02;89.15;98189.27;271917;1272;24376;-89
2023/01/30 11:15:03;;;;;;;20.00;11.10;;;;;;;0.95;89.54;98175.85;272233;1270;95275;-89
2023/01/30 11:21:13;;;;;;;21.30;11.20;;;;;;;0.89;89.80;98167.48;269926;1271;22387;-88
2023/01/30 11:27:27;;;;;;;22.00;12.00;;;;;;;0.89;90.00;98155.46;272847;1272;22579;-89
2023/01/30 11:33:37;;;;;;;21.70;12.10;;;;;;;0.89;90.09;98155.05;270467;1272;22218;-88
2023/01/30 11:39:46;;;;;;;27.90;14.90;;;;;;;0.86;89.84;98143.04;272284;1272;22337;-89
2023/01/30 11:45:49;;;;;;;24.20;12.80;;;;;;;0.86;90.12;98128.17;272953;1271;22423;-88
2023/01/30 11:51:52;;;;;;;27.40;13.40;;;;;;;0.86;90.28;98120.70;272603;1272;22510;-89
2023/01/30 11:57:57;;;;;;;27.60;14.00;;;;;;;0.83;90.62;98119.96;272011;1272;22298;-89
2023/01/30 12:03:59;;;;;;;23.00;13.50;;;;;;;0.77;90.54;98116.60;271655;1272;22634;-90
2023/01/30 12:10:26;;;;;;;21.30;13.00;;;;;;;0.62;91.15;98106.06;270113;1270;25653;-89
2023/01/30 12:16:58;;;;;;;27.50;15.00;;;;;;;0.52;91.41;98087.02;271202;1272;22554;-90
2023/01/30 12:23:04;;;;;;;23.90;13.20;;;;;;;0.44;91.99;98079.05;271344;1272;22583;-91
2023/01/30 12:29:30;;;;;;;22.80;12.40;;;;;;;0.43;92.47;98074.85;270742;1272;22605;-90
2023/01/30 12:35:43;;;;;;;25.70;13.70;;;;;;;0.39;92.50;98071.88;272571;1272;22371;-91
2023/01/30 12:41:45;;;;;;;22.80;12.30;;;;;;;0.32;93.02;98061.99;272675;1272;22598;-88
2023/01/30 12:48:09;;;;;;;24.70;13.90;;;;;;;0.27;93.34;98060.45;270764;1272;22576;-90
2023/01/30 12:54:42;;;;;;;27.20;13.70;;;;;;;0.26;93.56;98054.33;270451;1272;22531;-91
2023/01/30 13:00:50;;;;;;;27.50;14.10;;;;;;;0.31;93.92;98048.82;269961;1262;23111;-90
2023/01/30 13:06:55;;;;;;;27.50;15.00;;;;;;;0.43;94.42;98050.15;272844;1271;22500;-89
2023/01/30 13:13:25;;;;;;;28.50;14.80;;;;;;;0.49;94.54;98042.83;272953;1256;22400;-90
2023/01/30 13:19:35;;;;;;;30.60;14.20;;;;;;;0.54;94.82;98041.00;272959;1272;22234;-90
2023/01/30 13:25:52;;;;;;;27.90;13.80;;;;;;;0.55;94.78;98042.60;270587;1272;23281;-89
2023/01/30 13:31:58;;;;;;;27.30;15.40;;;;;;;0.46;95.07;98036.04;270284;1272;22595;-90
2023/01/30 13:38:06;;;;;;;22.00;12.80;;;;;;;0.42;95.59;98030.44;270741;1272;22498;-91
2023/01/30 13:44:19;;;;;;;21.90;12.80;;;;;;;0.45;96.01;98031.83;270811;1272;23318;-91
2023/01/30 13:50:39;;;;;;;25.90;13.70;;;;;;;0.47;95.92;98027.20;270825;1272;22320;-93
2023/01/30 13:57:03;;;;;;;30.30;14.60;;;;;;;0.47;96.15;98022.85;270283;1272;22676;-93
2023/01/30 14:03:06;;;;;;;30.60;14.00;;;;;;;0.50;96.18;98023.30;270844;1273;23363;-93
2023/01/30 14:09:22;;;;;;;24.20;13.00;;;;;;;0.54;96.26;98027.23;271062;1270;22581;-91
2023/01/30 14:15:27;;;;;;;;;;;;;;;0.57;96.26;98021.95;270947;1272;23450;-90
2023/01/30 14:21:33;;;;;;;21.40;10.40;;;;;;;0.57;96.40;98008.65;271011;1270;23653;-90
2023/01/30 14:27:43;;;;;;;22.50;12.40;;;;;;;0.56;96.45;98007.02;272413;1272;22328;-92
2023/01/30 14:33:50;;;;;;;26.80;12.90;;;;;;;0.57;96.60;98003.11;270694;1272;26860;-91
2023/01/30 14:39:54;;;;;;;23.60;12.70;;;;;;;0.60;96.59;98008.65;271035;1272;22517;-90
2023/01/30 14:46:02;;;;;;;25.20;13.00;;;;;;;0.60;96.58;98011.75;271402;1272;22554;-91
2023/01/30 14:52:16;;;;;;;21.40;11.50;;;;;;;0.56;96.51;98008.69;270303;1270;22633;-92
2023/01/30 14:58:19;;;;;;;29.10;13.50;;;;;;;0.54;96.65;98012.15;270390;1256;22492;-91
2023/01/30 15:04:46;;;;;;;32.50;15.20;;;;;;;0.52;96.60;98016.79;271140;1272;25333;-90
2023/01/30 15:10:57;;;;;;;26.40;13.70;;;;;;;0.54;96.70;98012.33;270650;1271;22367;-91
2023/01/30 15:17:18;;;;;;;22.90;12.00;;;;;;;0.56;96.80;98005.45;271386;1271;22863;-91
2023/01/30 15:23:43;;;;;;;26.70;12.40;;;;;;;0.60;96.94;98010.81;272443;1271;24134;-92
2023/01/30 15:30:46;;;;;;;27.90;13.20;;;;;;;0.66;96.78;98019.64;270666;1270;22339;-92
2023/01/30 15:36:50;;;;;;;23.30;12.20;;;;;;;0.67;96.89;98024.52;271240;1272;22658;-92
2023/01/30 15:43:15;;;;;;;28.10;13.40;;;;;;;0.67;97.02;98027.46;271037;1272;22558;-92
2023/01/30 15:49:34;;;;;;;;;;;;;;;0.67;97.20;98031.30;270875;1272;22637;-90
2023/01/30 15:55:41;;;;;;;24.60;12.10;;;;;;;0.69;97.18;98038.28;272525;1273;22471;-93
2023/01/30 16:01:46;;;;;;;24.60;11.70;;;;;;;0.68;97.13;98051.98;270169;1272;22644;-90
2023/01/30 16:08:11;;;;;;;33.80;14.80;;;;;;;0.67;97.08;98060.98;270299;1270;23416;-91
2023/01/30 16:14:15;;;;;;;21.80;11.50;;;;;;;0.65;97.28;98054.33;271135;1270;22515;-91
2023/01/30 16:20:21;;;;;;;28.20;13.60;;;;;;;0.61;97.74;98057.66;272270;1271;23132;-92
2023/01/30 16:26:26;;;;;;;25.70;12.80;;;;;;;0.62;97.65;98068.35;273105;1273;22191;-90
2023/01/30 16:32:38;;;;;;;25.60;12.60;;;;;;;0.63;97.84;98086.34;271842;1271;23410;-92
2023/01/30 16:38:46;;;;;;;20.60;10.30;;;;;;;0.68;98.41;98091.27;271202;1271;22492;-92
2023/01/30 16:44:48;;;;;;;21.40;10.90;;;;;;;0.81;98.87;98095.13;271759;1270;22223;-91
2023/01/30 16:51:10;;;;;;;21.90;11.00;;;;;;;0.96;98.86;98094.17;272744;1272;22893;-90
2023/01/30 16:57:33;;;;;;;19.90;9.40;;;;;;;1.07;98.91;98088.94;270120;1272;22571;-90
2023/01/30 17:03:58;;;;;;;19.50;10.90;;;;;;;1.16;99.01;98091.23;272562;1271;22211;-91
2023/01/30 17:10:03;;;;;;;20.20;9.90;;;;;;;1.21;98.95;98086.31;272666;1270;22917;-91
2023/01/30 17:16:33;;;;;;;20.00;9.30;;;;;;;1.29;98.80;98080.12;271801;1270;22878;-92
2023/01/30 17:22:35;;;;;;;;;;;;;;;1.36;98.59;98082.81;272277;1271;22522;-93
2023/01/30 17:28:39;;;;;;;18.20;10.00;;;;;;;1.35;98.50;98080.16;263819;1272;10001935;-92
2023/01/30 17:34:41;;;;;;;18.00;8.70;;;;;;;1.36;98.55;98074.79;271593;1272;22317;-92
2023/01/30 17:40:43;;;;;;;16.90;9.80;;;;;;;1.43;98.38;98070.64;271325;1270;22572;-93
2023/01/30 17:46:48;;;;;;;19.10;8.90;;;;;;;1.48;98.24;98070.48;272512;1269;22348;-92
2023/01/30 17:52:53;;;;;;;14.90;7.50;;;;;;;1.48;98.27;98066.48;272010;1272;22337;-91
2023/01/30 17:58:55;;;;;;;18.70;8.80;;;;;;;1.50;98.32;98058.45;272037;1272;22506;-91
2023/01/30 18:04:57;;;;;;;12.70;6.70;;;;;;;1.58;98.19;98049.08;270875;1270;22604;-94
2023/01/30 18:10:59;;;;;;;12.40;7.00;;;;;;;1.63;97.90;98052.15;269428;1272;24366;-92
2023/01/30 18:17:02;;;;;;;12.40;6.80;;;;;;;1.63;97.64;98053.70;270319;1272;22314;-92
2023/01/30 18:23:06;;;;;;;13.30;7.00;;;;;;;1.61;97.72;98056.02;272752;1270;22419;-91
2023/01/30 18:29:11;;;;;;;11.90;6.90;;;;;;;1.58;97.93;98056.55;272804;1270;22442;-90
2023/01/30 18:35:15;;;;;;;13.80;6.60;;;;;;;1.63;97.97;98059.86;272135;1271;23079;-93
2023/01/30 18:41:18;;;;;;;9.50;6.00;;;;;;;1.74;98.01;98063.05;271976;1270;22596;-91
2023/01/30 18:47:21;;;;;;;11.80;6.70;;;;;;;1.83;97.69;98065.39;272497;1269;22400;-91
2023/01/30 18:53:22;;;;;;;12.50;6.20;;;;;;;1.84;97.46;98068.43;272392;1270;25361;-92
2023/01/30 18:59:25;;;;;;;13.90;6.30;;;;;;;1.80;97.43;98062.58;272742;1272;22342;-90
2023/01/30 19:05:27;;;;;;;19.60;6.80;;;;;;;1.79;97.61;98055.39;272846;1272;23078;-92
2023/01/30 19:17:49;;;;;;;15.70;7.00;;;;;;;1.79;97.64;98048.05;272638;1272;22224;-92
2023/01/30 19:23:52;;;;;;;16.50;7.10;;;;;;;1.75;97.58;98058.11;272587;1270;23982;-91
2023/01/30 19:29:54;;;;;;;14.30;6.60;;;;;;;1.70;97.70;98055.91;271799;1270;22582;-90
2023/01/30 19:36:08;;;;;;;13.50;6.70;;;;;;;1.73;97.84;98058.46;270776;1270;22578;-90
2023/01/30 19:42:10;;;;;;;14.30;6.40;;;;;;;1.77;97.65;98063.20;270980;1270;22651;-92
2023/01/30 19:48:12;;;;;;;18.00;7.10;;;;;;;1.76;97.73;98067.25;272556;1271;22314;-92
2023/01/30 19:54:14;;;;;;;15.00;7.30;;;;;;;1.72;97.67;98066.23;272831;1270;22186;-90
2023/01/30 20:00:20;;;;;;;16.60;7.70;;;;;;;1.76;97.79;98065.27;272942;1271;22211;-92
2023/01/30 20:06:26;;;;;;;14.80;6.30;;;;;;;1.84;97.72;98061.73;272852;1271;22413;-91
2023/01/30 20:12:28;;;;;;;11.90;5.70;;;;;;;1.91;97.60;98064.92;273069;1271;22352;-91
2023/01/30 20:18:33;;;;;;;16.90;6.70;;;;;;;1.90;97.64;98072.55;272210;1271;24216;-91
2023/01/30 20:24:35;;;;;;;15.90;7.20;;;;;;;1.89;97.96;98071.80;270592;1270;23438;-91
2023/01/30 20:30:38;;;;;;;17.40;7.40;;;;;;;1.87;98.20;98076.16;272482;1272;22626;-90
2023/01/30 20:36:40;;;;;;;13.30;7.10;;;;;;;1.87;98.48;98075.87;272768;1271;22278;-90
2023/01/30 20:42:42;;;;;;;15.50;8.00;;;;;;;1.91;98.49;98080.83;272898;1271;23404;-91
2023/01/30 20:48:44;;;;;;;18.00;7.90;;;;;;;1.95;98.47;98085.27;272959;1271;22194;-90
2023/01/30 20:54:46;;;;;;;15.40;7.10;;;;;;;1.99;98.60;98090.33;271744;1271;22557;-88
2023/01/30 21:00:50;;;;;;;10.00;5.10;;;;;;;1.97;98.80;98096.75;272635;1270;22952;-90
2023/01/30 21:06:54;;;;;;;;;;;;;;;1.92;99.17;98106.47;272918;1271;23819;-89
2023/01/30 21:12:56;;;;;;;10.70;5.00;;;;;;;1.87;99.78;98117.03;272931;1260;23636;-90
2023/01/30 21:19:01;;;;;;;12.30;5.40;;;;;;;1.84;99.99;98120.40;272138;1271;22583;-89
2023/01/30 21:25:04;;;;;;;10.20;5.20;;;;;;;1.79;100.00;98128.80;270425;1272;22567;-91
2023/01/30 21:31:10;;;;;;;10.80;5.00;;;;;;;1.74;100.00;98138.17;270766;1270;22505;-89
2023/01/30 21:43:32;;;;;;;12.20;6.00;;;;;;;1.70;100.00;98149.57;271972;1271;22584;-90
2023/01/30 21:49:35;;;;;;;12.40;6.30;;;;;;;1.62;100.00;98159.56;270664;1271;23827;-89
2023/01/30 21:55:36;;;;;;;15.40;7.30;;;;;;;1.55;100.00;98168.41;272067;1270;22326;-90
2023/01/30 22:01:39;;;;;;;16.50;7.80;;;;;;;1.51;100.00;98175.31;272887;1270;22407;-91
2023/01/30 22:07:40;;;;;;;13.90;6.80;;;;;;;1.49;100.00;98185.41;272867;1271;22211;-90
2023/01/30 22:13:42;;;;;;;17.20;7.50;;;;;;;1.45;100.00;98194.38;272971;1272;22354;-90
2023/01/30 22:19:45;;;;;;;15.30;7.10;;;;;;;1.43;100.00;98210.09;273046;1270;22384;-90
2023/01/30 22:25:53;;;;;;;19.30;8.80;;;;;;;1.40;100.00;98216.30;270241;1270;22580;-90
2023/01/30 22:31:55;;;;;;;16.00;8.20;;;;;;;1.36;100.00;98219.10;271044;1261;22369;-90
2023/01/30 22:37:57;;;;;;;17.80;7.70;;;;;;;1.31;100.00;98217.17;271635;1271;22627;-89
2023/01/30 22:43:59;;;;;;;16.70;7.30;;;;;;;1.31;100.00;98217.92;269414;1264;22834;-90
2023/01/30 22:50:03;;;;;;;14.20;8.10;;;;;;;1.30;100.00;98222.89;268976;1270;22572;-90
2023/01/30 22:56:07;;;;;;;18.40;9.60;;;;;;;1.31;100.00;98223.09;268977;1272;22522;-90
2023/01/30 23:02:09;;;;;;;22.20;9.70;;;;;;;1.35;100.00;98220.30;269152;1271;25229;-91
2023/01/30 23:08:10;;;;;;;20.90;7.40;;;;;;;1.37;100.00;98220.83;269176;1272;22636;-89
2023/01/30 23:14:14;;;;;;;15.80;8.00;;;;;;;1.40;100.00;98215.48;272597;1271;22331;-90
2023/01/30 23:20:16;;;;;;;14.80;6.70;;;;;;;1.36;100.00;98218.95;271013;1270;22555;-89
2023/01/30 23:26:19;;;;;;;16.30;7.50;;;;;;;1.33;100.00;98225.02;269482;1270;22620;-89
2023/01/30 23:32:22;;;;;;;15.30;6.20;;;;;;;1.28;100.00;98224.59;269012;1272;22592;-91
2023/01/30 23:38:24;;;;;;;13.80;6.00;;;;;;;1.26;100.00;98236.69;269753;1270;22485;-89
2023/01/30 23:44:26;;;;;;;19.70;6.30;;;;;;;1.28;100.00;98237.55;269478;1271;22600;-89
2023/01/30 23:50:30;;;;;;;17.10;6.60;;;;;;;1.27;100.00;98249.46;271766;1270;23762;-89
2023/01/30 23:56:34;;;;;;;19.50;8.00;;;;;;;1.14;100.00;98255.68;269867;1270;22626;-89
